Beautrophy — PBNR — position and weather

sailwx.info

Track history (hours):
 
Tides and Currents Weather Stations Pressure Air Temp Water Temp Dewpoint Dewpoint Depression Visibility Wind Speed Wind Dir Waves Ship Positions

Beautrophy

Last reported at 2017-Nov-23 20:18 UTC. Time now 2017-Nov-24 03:51 UTC.
Position N 36°01' W 005°06'.

Length 118 m; draft 4.6 m.

Type: Cargo ship. MMSI: 245916000.

Date/timePositionNaut miles runAvg speedWind from/ knotsBaromVisibWave heightAir tempDewpointWater temp
2017-Nov-23 20:18N 36°01' W 005°06'411.9
2017-Nov-23 20:00N 36°00' W 005°10'612.8
2017-Nov-23 19:30N 35°59' W 005°18'612.5
2017-Nov-23 19:00N 35°57' W 005°25'8411.1
2017-Nov-23 11:25N 35°09' W 006°50'511.8
2017-Nov-23 11:00N 35°05' W 006°54'1911.8
2017-Nov-23 09:24N 34°50' W 007°08'511.6
2017-Nov-23 09:00N 34°46' W 007°11'611.5
2017-Nov-23 08:27N 34°41' W 007°16'611.7
2017-Nov-23 07:56N 34°36' W 007°20'511.8
2017-Nov-23 07:29N 34°32' W 007°24'3311.8
2017-Nov-23 04:41N 34°07' W 007°50'211.7
2017-Nov-23 04:29N 34°05' W 007°52'611.6
2017-Nov-23 03:58N 34°01' W 007°57'511.6
2017-Nov-23 03:30N 33°57' W 008°01'611.5
2017-Nov-23 03:00N 33°52' W 008°05'611.4
2017-Nov-23 02:29N 33°48' W 008°10'511.6
2017-Nov-23 02:00N 33°43' W 008°14'611.7
2017-Nov-23 01:30N 33°39' W 008°19'611.7
2017-Nov-23 01:00N 33°34' W 008°23'611.4
2017-Nov-23 00:30N 33°30' W 008°27'611.2
2017-Nov-23 00:00N 33°25' W 008°32'611.5
2017-Nov-22 23:30N 33°21' W 008°36'811.6
2017-Nov-22 22:49N 33°15' W 008°42'411.3
2017-Nov-22 22:30N 33°12' W 008°44'5 9.0
2017-Nov-22 21:56N 33°08' W 008°41'  
2017-Nov-19 17:00N 33°08' W 008°38'0 0.0
2017-Nov-19 16:24N 33°08' W 008°38'0 0.0
2017-Nov-19 16:00N 33°08' W 008°38'0 0.0
2017-Nov-18 18:18N 33°08' W 008°38'  
Track history (hours):
 
Tides and Currents Weather Stations Pressure Air Temp Water Temp Dewpoint Dewpoint Depression Visibility Wind Speed Wind Dir Waves Ship Positions

Beautrophy

Last reported at 2017-Nov-23 20:18 UTC. Time now 2017-Nov-24 03:51 UTC.
Position N 36°01' W 005°06'.

Length 118 m; draft 4.6 m.

Type: Cargo ship. MMSI: 245916000.

Date/timePositionNaut miles runAvg speedWind from/ knotsBaromVisibWave heightAir tempDewpointWater temp
2017-Nov-23 20:18N 36°01' W 005°06'411.9
2017-Nov-23 20:00N 36°00' W 005°10'612.8
2017-Nov-23 19:30N 35°59' W 005°18'612.5
2017-Nov-23 19:00N 35°57' W 005°25'8411.1
2017-Nov-23 11:25N 35°09' W 006°50'511.8
2017-Nov-23 11:00N 35°05' W 006°54'1911.8
2017-Nov-23 09:24N 34°50' W 007°08'511.6
2017-Nov-23 09:00N 34°46' W 007°11'611.5
2017-Nov-23 08:27N 34°41' W 007°16'611.7
2017-Nov-23 07:56N 34°36' W 007°20'511.8
2017-Nov-23 07:29N 34°32' W 007°24'3311.8
2017-Nov-23 04:41N 34°07' W 007°50'211.7
2017-Nov-23 04:29N 34°05' W 007°52'611.6
2017-Nov-23 03:58N 34°01' W 007°57'511.6
2017-Nov-23 03:30N 33°57' W 008°01'611.5
2017-Nov-23 03:00N 33°52' W 008°05'611.4
2017-Nov-23 02:29N 33°48' W 008°10'511.6
2017-Nov-23 02:00N 33°43' W 008°14'611.7
2017-Nov-23 01:30N 33°39' W 008°19'611.7
2017-Nov-23 01:00N 33°34' W 008°23'611.4
2017-Nov-23 00:30N 33°30' W 008°27'611.2
2017-Nov-23 00:00N 33°25' W 008°32'611.5
2017-Nov-22 23:30N 33°21' W 008°36'811.6
2017-Nov-22 22:49N 33°15' W 008°42'411.3
2017-Nov-22 22:30N 33°12' W 008°44'5 9.0
2017-Nov-22 21:56N 33°08' W 008°41'  
2017-Nov-19 17:00N 33°08' W 008°38'0 0.0
2017-Nov-19 16:24N 33°08' W 008°38'0 0.0
2017-Nov-19 16:00N 33°08' W 008°38'0 0.0
2017-Nov-18 18:18N 33°08' W 008°38'  

Dump ship's entire track history